Time;durP1;ratioP1;P1;durP2;ratioP2;P2;SDS_P1;SDS_P2;PMS_P1;PMS_P2;Temp;Humidity;BMP_temperature;BMP_pressure;BME280_temperature;BME280_humidity;BME280_pressure;Samples;Min_cycle;Max_cycle;Signal;HPM_P1;HPM_P2
2022/04/15 00:02:07;;;;;;;26.37;24.60;;;14.00;79.90;;;;;;5073098;28;20461;-75
2022/04/15 00:04:34;;;;;;;26.33;24.73;;;14.00;79.60;;;;;;5073035;28;20554;-75
2022/04/15 00:07:01;;;;;;;25.77;24.27;;;14.00;79.60;;;;;;5073165;28;20456;-75
2022/04/15 00:09:28;;;;;;;25.93;24.37;;;14.00;79.60;;;;;;5071345;28;20482;-75
2022/04/15 00:11:56;;;;;;;26.50;25.00;;;13.90;79.60;;;;;;5072951;28;20450;-75
2022/04/15 00:14:23;;;;;;;26.00;24.57;;;13.90;79.70;;;;;;5072357;28;20479;-75
2022/04/15 00:16:50;;;;;;;26.47;24.93;;;14.00;79.50;;;;;;5072894;28;20545;-75
2022/04/15 00:19:19;;;;;;;26.20;24.80;;;14.00;79.20;;;;;;5072128;28;20486;-75
2022/04/15 00:21:46;;;;;;;26.80;24.80;;;14.00;79.20;;;;;;5072772;28;20450;-75
2022/04/15 00:24:13;;;;;;;26.30;24.70;;;14.00;79.40;;;;;;5072719;28;20473;-75
2022/04/15 00:26:40;;;;;;;25.53;24.23;;;13.90;80.00;;;;;;5072741;28;20462;-75
2022/04/15 00:29:06;;;;;;;26.33;25.00;;;13.90;79.90;;;;;;5072298;28;20482;-75
2022/04/15 00:31:34;;;;;;;26.60;25.00;;;13.80;80.00;;;;;;5072313;28;20895;-75
2022/04/15 00:34:02;;;;;;;27.10;25.40;;;13.70;80.40;;;;;;5072474;28;20481;-75
2022/04/15 00:36:30;;;;;;;27.13;25.27;;;13.70;80.60;;;;;;5072545;28;20458;-75
2022/04/15 00:38:57;;;;;;;25.77;24.37;;;13.60;80.80;;;;;;5072482;28;20451;-75
2022/04/15 00:41:24;;;;;;;26.90;25.03;;;13.60;80.90;;;;;;5071735;28;20962;-75
2022/04/15 00:43:55;;;;;;;26.80;25.20;;;13.60;80.90;;;;;;5072452;28;20528;-75
2022/04/15 00:46:22;;;;;;;26.47;24.97;;;13.60;80.80;;;;;;5072295;28;20959;-75
2022/04/15 00:48:49;;;;;;;26.23;24.60;;;13.70;80.50;;;;;;5072248;28;20489;-75
2022/04/15 00:51:16;;;;;;;25.33;23.93;;;13.70;80.40;;;;;;5071798;28;20457;-75
2022/04/15 00:53:46;;;;;;;25.40;24.10;;;13.70;80.40;;;;;;5072233;28;20490;-75
2022/04/15 00:56:14;;;;;;;25.90;24.40;;;13.60;80.80;;;;;;5072390;28;20458;-75
2022/04/15 00:58:42;;;;;;;25.80;24.23;;;13.60;81.00;;;;;;5072226;28;20951;-75
2022/04/15 01:01:09;;;;;;;25.57;23.97;;;13.60;81.10;;;;;;5071888;28;20459;-75
2022/04/15 01:03:37;;;;;;;25.47;23.90;;;13.50;82.50;;;;;;5072197;28;21079;-75
2022/04/15 01:06:07;;;;;;;25.40;23.97;;;13.50;81.50;;;;;;5072210;28;20545;-75
2022/04/15 01:08:39;;;;;;;25.50;23.87;;;13.50;81.30;;;;;;5071900;28;20474;-75
2022/04/15 01:11:09;;;;;;;25.53;24.07;;;13.70;80.70;;;;;;5071788;28;20456;-75
2022/04/15 01:13:40;;;;;;;26.20;24.60;;;13.60;80.50;;;;;;5072003;28;20475;-75
2022/04/15 01:16:09;;;;;;;26.50;24.70;;;13.60;80.80;;;;;;5072067;28;20446;-75
2022/04/15 01:18:36;;;;;;;26.23;24.33;;;13.50;81.10;;;;;;5071944;28;20538;-75
2022/04/15 01:21:04;;;;;;;24.90;23.50;;;13.50;81.30;;;;;;5071223;28;20822;-75
2022/04/15 01:23:32;;;;;;;25.40;24.00;;;13.40;81.70;;;;;;5072106;28;20565;-75
2022/04/15 01:25:59;;;;;;;25.50;23.90;;;13.40;81.80;;;;;;5072059;28;20461;-75
2022/04/15 01:28:26;;;;;;;25.60;23.47;;;13.50;81.20;;;;;;5071724;28;20451;-75
2022/04/15 01:30:53;;;;;;;25.53;24.03;;;13.50;81.10;;;;;;5071392;28;20457;-74
2022/04/15 01:33:20;;;;;;;25.73;24.20;;;13.50;81.10;;;;;;5072010;28;20580;-75
2022/04/15 01:35:47;;;;;;;26.20;24.80;;;13.40;81.40;;;;;;5071712;28;20474;-75
2022/04/15 01:38:17;;;;;;;25.10;23.80;;;13.50;81.40;;;;;;5071962;28;20451;-75
2022/04/15 01:40:46;;;;;;;25.77;24.27;;;13.40;81.40;;;;;;5071328;28;20454;-75
2022/04/15 01:43:13;;;;;;;25.70;24.20;;;13.40;81.70;;;;;;5071890;28;20844;-75
2022/04/15 01:45:40;;;;;;;25.37;23.67;;;13.30;81.80;;;;;;5071509;28;20451;-75
2022/04/15 01:48:07;;;;;;;25.70;24.30;;;13.40;81.90;;;;;;5071645;28;20497;-75
2022/04/15 01:50:34;;;;;;;24.97;23.50;;;13.40;81.90;;;;;;5071053;28;21025;-75
2022/04/15 01:53:01;;;;;;;26.10;24.50;;;13.40;81.90;;;;;;5071651;28;20586;-75
2022/04/15 01:55:28;;;;;;;25.53;24.03;;;13.40;81.60;;;;;;5071859;28;20525;-75
2022/04/15 01:57:57;;;;;;;24.70;23.03;;;13.40;81.50;;;;;;5071675;28;20450;-75
2022/04/15 02:00:23;;;;;;;25.63;24.20;;;13.50;81.40;;;;;;5071064;28;20524;-75
2022/04/15 02:02:50;;;;;;;26.10;24.57;;;13.50;81.10;;;;;;5071523;28;20470;-75
2022/04/15 02:05:17;;;;;;;26.27;24.67;;;13.40;81.50;;;;;;5071446;28;20545;-75
2022/04/15 02:07:44;;;;;;;26.57;25.03;;;13.40;81.60;;;;;;5071574;28;20812;-75
2022/04/15 02:10:12;;;;;;;26.00;24.10;;;13.30;81.90;;;;;;5070775;28;20948;-75
2022/04/15 02:12:39;;;;;;;25.67;24.03;;;13.30;81.90;;;;;;5071232;28;20481;-75
2022/04/15 02:15:09;;;;;;;26.50;24.80;;;13.30;81.90;;;;;;5071369;28;20457;-75
2022/04/15 02:17:36;;;;;;;24.93;23.53;;;13.40;81.90;;;;;;5071526;28;20905;-75
2022/04/15 02:20:03;;;;;;;24.73;23.43;;;13.30;82.10;;;;;;5070716;28;20439;-75
2022/04/15 02:22:30;;;;;;;26.03;24.30;;;13.20;82.40;;;;;;5071588;28;20534;-75
2022/04/15 02:24:57;;;;;;;25.10;23.50;;;13.10;82.80;;;;;;5071346;28;20966;-75
2022/04/15 02:27:24;;;;;;;24.80;23.40;;;13.00;83.10;;;;;;5071457;28;20932;-75
2022/04/15 02:29:51;;;;;;;24.47;23.07;;;13.00;83.20;;;;;;5070611;28;20478;-75
2022/04/15 02:32:19;;;;;;;25.77;24.37;;;13.00;83.30;;;;;;5073417;28;20528;-75
2022/04/15 02:34:46;;;;;;;26.00;24.60;;;13.00;83.30;;;;;;5074726;28;20936;-75
2022/04/15 02:37:14;;;;;;;25.03;23.63;;;12.90;83.50;;;;;;5075156;28;20815;-75
2022/04/15 02:39:41;;;;;;;26.00;24.20;;;12.90;83.70;;;;;;5074404;28;20815;-75
2022/04/15 02:42:08;;;;;;;24.13;22.53;;;12.90;83.80;;;;;;5074911;28;20868;-75
2022/04/15 02:44:38;;;;;;;24.87;23.47;;;12.90;83.80;;;;;;5074708;28;21021;-75
2022/04/15 02:47:06;;;;;;;26.10;24.50;;;13.10;83.20;;;;;;5074747;28;20473;-74
2022/04/15 02:49:34;;;;;;;25.67;24.17;;;13.00;83.20;;;;;;5074254;28;20485;-75
2022/04/15 02:52:01;;;;;;;24.50;23.10;;;13.00;83.20;;;;;;5074843;28;20533;-75
2022/04/15 02:54:28;;;;;;;25.17;23.67;;;13.10;83.00;;;;;;5074643;28;20475;-75
2022/04/15 02:56:55;;;;;;;24.90;23.30;;;13.00;83.10;;;;;;5074525;28;20977;-75
2022/04/15 02:59:22;;;;;;;24.03;22.73;;;12.90;83.60;;;;;;5073808;28;20465;-75
2022/04/15 03:01:49;;;;;;;24.80;23.50;;;12.80;84.00;;;;;;5074702;28;20469;-75
2022/04/15 03:04:16;;;;;;;24.87;23.27;;;12.80;84.30;;;;;;5074539;28;20481;-75
2022/04/15 03:06:44;;;;;;;26.90;25.17;;;12.80;84.20;;;;;;5074609;28;20447;-75
2022/04/15 03:09:11;;;;;;;24.70;23.30;;;12.80;84.20;;;;;;5073705;28;20474;-75
2022/04/15 03:11:38;;;;;;;24.70;23.30;;;12.80;84.20;;;;;;5074307;28;20446;-75
2022/04/15 03:14:06;;;;;;;24.80;23.40;;;12.80;83.80;;;;;;5073657;28;20489;-75
2022/04/15 03:16:34;;;;;;;24.77;23.27;;;12.80;83.90;;;;;;5074212;28;20461;-75
2022/04/15 03:19:01;;;;;;;24.77;23.20;;;12.70;84.10;;;;;;5073772;28;20834;-75
2022/04/15 03:21:28;;;;;;;24.60;23.13;;;12.70;84.40;;;;;;5073716;28;20458;-75
2022/04/15 03:23:56;;;;;;;25.77;24.27;;;12.70;84.50;;;;;;5073918;28;20483;-75
2022/04/15 03:26:24;;;;;;;24.30;22.90;;;12.70;84.40;;;;;;5074130;28;20447;-74
2022/04/15 03:28:51;;;;;;;25.00;23.50;;;12.70;84.30;;;;;;5073927;28;20455;-75
2022/04/15 03:31:18;;;;;;;24.73;23.33;;;12.80;84.00;;;;;;5073328;28;20475;-75
2022/04/15 03:33:45;;;;;;;24.00;22.67;;;12.80;84.00;;;;;;5073735;28;20560;-75
2022/04/15 03:36:12;;;;;;;23.73;22.43;;;12.70;84.20;;;;;;5073766;28;20877;-75
2022/04/15 03:38:40;;;;;;;24.30;22.90;;;12.60;84.40;;;;;;5073462;28;20451;-75
2022/04/15 03:41:08;;;;;;;24.70;23.10;;;12.60;84.70;;;;;;5073257;28;21015;-75
2022/04/15 03:43:35;;;;;;;25.10;23.40;;;12.50;85.10;;;;;;5073397;28;20839;-75
2022/04/15 03:46:02;;;;;;;24.80;23.30;;;12.40;85.30;;;;;;5073679;28;20939;-75
2022/04/15 03:48:29;;;;;;;25.00;23.30;;;12.40;85.50;;;;;;5073566;28;20454;-74
2022/04/15 03:50:56;;;;;;;24.37;22.97;;;12.40;85.50;;;;;;5072821;28;20536;-75
2022/04/15 03:53:23;;;;;;;24.50;23.10;;;12.40;85.40;;;;;;5073240;28;21002;-75
2022/04/15 03:55:52;;;;;;;24.17;22.77;;;12.40;85.20;;;;;;5073616;28;20871;-74
2022/04/15 03:58:20;;;;;;;24.20;22.90;;;12.50;84.90;;;;;;5073173;28;20462;-75
2022/04/15 04:00:47;;;;;;;26.23;24.57;;;12.40;85.00;;;;;;5072799;28;20494;-75
2022/04/15 04:03:15;;;;;;;25.23;23.83;;;12.30;85.20;;;;;;5073277;28;20591;-75
2022/04/15 04:05:42;;;;;;;24.83;23.43;;;12.20;85.80;;;;;;5073056;28;20816;-75
2022/04/15 04:08:09;;;;;;;24.97;23.60;;;12.10;86.10;;;;;;5073245;28;20451;-75
2022/04/15 04:10:36;;;;;;;24.70;23.40;;;12.10;86.20;;;;;;5072544;28;20483;-75
2022/04/15 04:13:03;;;;;;;26.50;24.90;;;12.10;86.60;;;;;;5072662;28;20484;-75
2022/04/15 04:15:32;;;;;;;24.73;23.33;;;12.00;86.80;;;;;;5073113;28;20455;-75
2022/04/15 04:17:59;;;;;;;24.40;23.00;;;12.00;86.90;;;;;;5072777;28;20816;-75
2022/04/15 04:20:26;;;;;;;24.57;23.20;;;11.90;87.10;;;;;;5072360;28;20529;-75
2022/04/15 04:22:53;;;;;;;24.60;23.20;;;12.00;86.90;;;;;;5072833;28;20898;-75
2022/04/15 04:25:20;;;;;;;24.20;22.90;;;12.00;86.80;;;;;;5072925;28;20459;-75
2022/04/15 04:27:48;;;;;;;24.63;23.07;;;12.00;86.80;;;;;;5072790;28;20554;-75
2022/04/15 04:30:15;;;;;;;24.90;23.17;;;11.90;86.90;;;;;;5072574;28;20483;-75
2022/04/15 04:32:49;;;;;;;24.47;23.17;;;11.90;86.90;;;;;;5072476;28;20514;-75
2022/04/15 04:35:17;;;;;;;24.80;23.30;;;11.90;86.80;;;;;;5072647;28;20556;-74
2022/04/15 04:37:45;;;;;;;24.77;23.37;;;11.90;86.70;;;;;;5072704;28;20461;-75
2022/04/15 04:40:12;;;;;;;25.40;23.53;;;11.90;86.80;;;;;;5072499;28;20451;-75
2022/04/15 04:42:40;;;;;;;25.50;23.60;;;11.90;86.70;;;;;;5072516;28;20470;-75
2022/04/15 04:45:10;;;;;;;24.73;23.33;;;11.90;86.90;;;;;;5072313;28;20804;-75
2022/04/15 04:47:39;;;;;;;24.90;23.50;;;11.90;86.80;;;;;;5072738;28;20470;-74
2022/04/15 04:50:09;;;;;;;24.30;22.70;;;11.90;86.70;;;;;;5072052;28;20482;-75
2022/04/15 04:52:37;;;;;;;24.20;22.57;;;11.90;86.90;;;;;;5072702;28;21003;-74
2022/04/15 04:55:05;;;;;;;24.43;22.93;;;11.90;87.00;;;;;;5071991;28;20454;-75
2022/04/15 04:57:32;;;;;;;23.80;22.50;;;11.90;86.80;;;;;;5072319;28;20954;-74
2022/04/15 04:59:59;;;;;;;24.77;23.17;;;12.00;86.60;;;;;;5071549;28;20450;-75
2022/04/15 05:02:26;;;;;;;24.53;23.10;;;12.10;86.20;;;;;;5072331;28;20542;-75
2022/04/15 05:04:53;;;;;;;24.40;23.00;;;12.10;85.80;;;;;;5072235;28;20457;-75
2022/04/15 05:07:21;;;;;;;25.73;24.13;;;12.10;85.70;;;;;;5072506;28;20537;-75
2022/04/15 05:09:48;;;;;;;24.80;23.30;;;12.20;85.70;;;;;;5071537;28;20962;-75
2022/04/15 05:12:15;;;;;;;25.30;23.70;;;12.20;85.60;;;;;;5072219;28;20568;-75
2022/04/15 05:14:42;;;;;;;24.93;23.43;;;12.10;85.70;;;;;;5071852;28;20837;-75
2022/04/15 05:17:09;;;;;;;24.30;22.80;;;12.20;85.60;;;;;;5072361;28;20545;-73
2022/04/15 05:19:36;;;;;;;23.70;22.40;;;12.20;85.60;;;;;;5071536;28;20454;-75
2022/04/15 05:22:03;;;;;;;23.87;22.47;;;12.30;84.90;;;;;;5072285;28;20550;-75
2022/04/15 05:24:31;;;;;;;25.33;23.67;;;12.40;84.80;;;;;;5072087;28;20556;-75
2022/04/15 05:26:58;;;;;;;24.50;23.07;;;12.40;84.70;;;;;;5072175;28;20529;-75
2022/04/15 05:29:25;;;;;;;24.67;23.10;;;12.40;84.60;;;;;;5071737;28;20454;-74
2022/04/15 05:31:52;;;;;;;24.40;23.00;;;12.40;84.70;;;;;;5072202;28;20575;-74
2022/04/15 05:34:19;;;;;;;25.80;24.10;;;12.50;84.70;;;;;;5071760;28;20988;-74
2022/04/15 05:36:46;;;;;;;26.10;24.60;;;12.50;84.80;;;;;;5071999;28;20454;-74
2022/04/15 05:39:13;;;;;;;26.50;24.70;;;12.60;84.70;;;;;;5071294;28;20453;-74
2022/04/15 05:41:41;;;;;;;26.87;24.93;;;12.70;84.60;;;;;;5072193;28;20454;-74
2022/04/15 05:44:08;;;;;;;26.40;24.80;;;12.90;83.90;;;;;;5072090;28;20473;-74
2022/04/15 05:46:37;;;;;;;25.87;24.37;;;13.10;83.10;;;;;;5072083;28;20462;-74
2022/04/15 05:49:04;;;;;;;26.17;24.57;;;13.30;82.80;;;;;;5071690;28;20542;-74
2022/04/15 05:51:31;;;;;;;26.50;24.90;;;13.40;82.10;;;;;;5071550;28;20887;-74
2022/04/15 05:53:58;;;;;;;26.60;25.00;;;13.50;81.70;;;;;;5071737;28;20476;-74
2022/04/15 05:56:25;;;;;;;26.80;25.30;;;13.50;81.70;;;;;;5071828;28;20460;-74
2022/04/15 05:58:53;;;;;;;26.40;24.80;;;13.70;81.30;;;;;;5071705;28;20447;-74
2022/04/15 06:01:21;;;;;;;28.40;26.20;;;13.80;81.00;;;;;;5071170;28;20446;-74
2022/04/15 06:03:48;;;;;;;27.17;25.57;;;13.80;80.90;;;;;;5071546;28;20474;-75
2022/04/15 06:06:14;;;;;;;27.10;25.47;;;13.90;80.60;;;;;;5072223;28;20461;-75
2022/04/15 06:08:42;;;;;;;27.83;26.20;;;14.10;80.20;;;;;;5075278;28;20944;-75
2022/04/15 06:11:09;;;;;;;27.57;25.97;;;14.20;79.60;;;;;;5074577;28;20482;-75
2022/04/15 06:13:37;;;;;;;28.47;26.70;;;14.40;79.30;;;;;;5074897;28;20560;-75
2022/04/15 06:16:09;;;;;;;27.33;25.53;;;14.50;78.80;;;;;;5075308;28;20968;-75
2022/04/15 06:18:36;;;;;;;30.67;28.77;;;14.70;78.20;;;;;;5075100;28;20458;-75
2022/04/15 06:21:04;;;;;;;27.57;25.87;;;14.90;77.70;;;;;;5074586;28;20557;-74
2022/04/15 06:23:31;;;;;;;30.17;28.00;;;14.90;77.40;;;;;;5075024;28;20549;-75
2022/04/15 06:25:58;;;;;;;30.30;28.07;;;14.90;77.40;;;;;;5075141;28;20469;-75
2022/04/15 06:28:25;;;;;;;29.10;27.20;;;15.00;77.00;;;;;;5074802;28;20512;-75
2022/04/15 06:30:54;;;;;;;31.00;29.20;;;15.00;77.20;;;;;;5074642;28;20485;-75
2022/04/15 06:33:22;;;;;;;29.10;27.30;;;15.00;77.00;;;;;;5075055;28;20477;-75
2022/04/15 06:35:50;;;;;;;28.43;26.63;;;15.10;76.90;;;;;;5074873;28;20557;-75
2022/04/15 06:38:17;;;;;;;29.80;27.80;;;15.20;76.60;;;;;;5074703;28;20947;-75
2022/04/15 06:40:44;;;;;;;29.30;27.50;;;15.40;76.30;;;;;;5074380;28;20450;-75
2022/04/15 06:43:11;;;;;;;29.77;27.57;;;15.40;76.20;;;;;;5074851;28;20473;-75
2022/04/15 06:45:38;;;;;;;31.10;29.10;;;15.50;76.00;;;;;;5074798;28;20500;-75
2022/04/15 06:48:06;;;;;;;31.90;29.73;;;15.60;75.90;;;;;;5074643;28;20447;-75
2022/04/15 06:50:34;;;;;;;32.43;30.23;;;15.60;76.00;;;;;;5074020;28;20832;-75
2022/04/15 06:53:01;;;;;;;31.53;29.53;;;15.80;75.80;;;;;;5074749;28;20553;-75
2022/04/15 06:55:28;;;;;;;32.47;30.17;;;16.00;75.40;;;;;;5074733;28;20508;-75
2022/04/15 06:57:55;;;;;;;33.10;30.60;;;16.10;74.70;;;;;;5074654;28;20454;-75
2022/04/15 07:00:22;;;;;;;32.37;30.20;;;16.20;74.00;;;;;;5073960;28;20537;-75
2022/04/15 07:02:49;;;;;;;32.90;30.60;;;16.20;73.90;;;;;;5074255;28;20471;-75
2022/04/15 07:05:17;;;;;;;34.03;31.53;;;16.20;73.90;;;;;;5074533;28;20515;-75
2022/04/15 07:07:45;;;;;;;31.70;29.60;;;16.40;73.70;;;;;;5074445;28;20947;-75
2022/04/15 07:10:13;;;;;;;32.10;29.80;;;16.50;73.20;;;;;;5073662;28;20836;-75
2022/04/15 07:12:40;;;;;;;35.03;32.43;;;16.60;73.10;;;;;;5074354;28;20474;-75
2022/04/15 07:15:08;;;;;;;33.57;31.30;;;16.60;72.70;;;;;;5073727;28;20471;-75
2022/04/15 07:17:35;;;;;;;34.63;31.83;;;16.60;72.90;;;;;;5073828;28;20457;-75
2022/04/15 07:20:01;;;;;;;35.60;32.90;;;16.70;72.60;;;;;;5073316;28;20454;-75
2022/04/15 07:22:28;;;;;;;34.17;31.77;;;16.70;72.30;;;;;;5074427;28;20453;-75
2022/04/15 07:24:57;;;;;;;33.83;31.33;;;16.80;72.20;;;;;;5073925;28;20561;-75
2022/04/15 07:27:24;;;;;;;35.57;32.97;;;17.00;71.70;;;;;;5073984;28;21557;-75
2022/04/15 07:29:50;;;;;;;34.97;32.33;;;17.10;70.90;;;;;;5073331;28;20450;-75
2022/04/15 07:32:22;;;;;;;36.20;33.63;;;17.20;70.50;;;;;;5073782;28;20482;-76
2022/04/15 07:34:49;;;;;;;35.33;32.87;;;17.30;70.50;;;;;;5073992;28;20563;-75
2022/04/15 07:37:16;;;;;;;42.87;39.03;;;17.40;70.30;;;;;;5073937;28;20508;-76
2022/04/15 07:39:43;;;;;;;37.40;34.70;;;17.40;69.80;;;;;;5073169;28;20509;-75
2022/04/15 07:42:12;;;;;;;37.63;34.73;;;17.50;69.60;;;;;;5073836;28;20533;-76
2022/04/15 07:44:40;;;;;;;36.07;33.30;;;17.60;69.50;;;;;;5073574;28;20451;-76
2022/04/15 07:47:07;;;;;;;37.33;34.47;;;17.80;68.80;;;;;;5073459;28;20451;-76
2022/04/15 07:49:35;;;;;;;36.30;33.70;;;17.80;68.20;;;;;;5072983;28;20457;-76
2022/04/15 07:52:02;;;;;;;37.10;34.30;;;17.80;67.90;;;;;;5073532;28;20564;-76
2022/04/15 07:54:29;;;;;;;37.60;34.80;;;17.90;68.90;;;;;;5073807;28;20470;-76
2022/04/15 07:56:57;;;;;;;37.63;34.93;;;17.80;68.80;;;;;;5073276;28;20832;-76
2022/04/15 07:59:25;;;;;;;37.60;34.83;;;18.00;68.10;;;;;;5072844;28;20462;-76
2022/04/15 08:01:53;;;;;;;36.13;33.43;;;18.10;67.50;;;;;;5073432;28;20538;-76
2022/04/15 08:04:20;;;;;;;37.63;34.93;;;18.20;67.10;;;;;;5073348;28;20478;-76
2022/04/15 08:06:47;;;;;;;37.53;34.63;;;18.20;67.00;;;;;;5073493;28;20447;-76
2022/04/15 08:09:14;;;;;;;36.70;34.10;;;18.30;66.80;;;;;;5072416;28;20907;-76
2022/04/15 08:11:40;;;;;;;37.40;34.70;;;18.50;66.40;;;;;;5073075;28;21014;-76
2022/04/15 08:14:08;;;;;;;37.10;34.20;;;18.50;66.10;;;;;;5072722;28;20474;-76
2022/04/15 08:16:36;;;;;;;38.47;35.63;;;18.70;65.90;;;;;;5073357;28;20454;-76
2022/04/15 08:19:03;;;;;;;38.63;36.03;;;18.80;65.40;;;;;;5072664;28;20455;-76
2022/04/15 08:21:31;;;;;;;37.87;35.07;;;18.70;65.30;;;;;;5072492;28;20459;-75
2022/04/15 08:23:59;;;;;;;40.20;37.10;;;18.70;64.90;;;;;;5072693;28;20482;-76
2022/04/15 08:26:26;;;;;;;39.70;36.53;;;18.70;64.70;;;;;;5072788;28;20813;-76
2022/04/15 08:28:53;;;;;;;40.13;37.23;;;18.70;64.70;;;;;;5072341;28;20458;-76
2022/04/15 08:31:19;;;;;;;40.87;37.77;;;18.80;64.60;;;;;;5072186;28;20840;-76
2022/04/15 08:33:48;;;;;;;40.13;37.20;;;19.00;63.90;;;;;;5073200;28;20562;-76
2022/04/15 08:36:15;;;;;;;41.40;38.33;;;18.90;64.20;;;;;;5073113;28;20549;-75
2022/04/15 08:38:42;;;;;;;39.50;36.70;;;19.00;63.80;;;;;;5072764;28;20461;-75
2022/04/15 08:41:12;;;;;;;41.83;39.13;;;19.10;63.30;;;;;;5072392;28;20873;-76
2022/04/15 08:43:40;;;;;;;40.33;37.43;;;19.20;62.70;;;;;;5072718;28;21051;-76
2022/04/15 08:46:08;;;;;;;42.07;39.07;;;19.20;62.50;;;;;;5072778;28;20447;-76
2022/04/15 08:48:36;;;;;;;42.13;39.13;;;19.30;62.30;;;;;;5072691;28;20542;-76
2022/04/15 08:51:05;;;;;;;41.17;38.23;;;19.40;61.00;;;;;;5071878;28;20562;-76
2022/04/15 08:53:32;;;;;;;43.40;39.90;;;19.30;60.40;;;;;;5072523;28;20513;-76
2022/04/15 08:55:59;;;;;;;43.03;39.73;;;18.90;61.80;;;;;;5072477;28;20936;-76
2022/04/15 08:58:27;;;;;;;41.97;38.80;;;18.80;62.10;;;;;;5072427;28;20805;-76
2022/04/15 09:00:54;;;;;;;44.80;41.40;;;18.70;62.30;;;;;;5071868;28;20490;-76
2022/04/15 09:03:21;;;;;;;41.93;38.90;;;18.70;62.20;;;;;;5072287;28;20471;-76
2022/04/15 09:05:51;;;;;;;43.13;39.70;;;18.70;62.40;;;;;;5072211;28;20962;-76
2022/04/15 09:08:19;;;;;;;40.60;37.77;;;19.00;61.80;;;;;;5072349;28;20450;-76
2022/04/15 09:10:56;;;;;;;40.10;37.17;;;19.20;60.80;;;;;;5071799;28;20521;-76
2022/04/15 09:13:28;;;;;;;46.53;43.23;;;19.20;60.70;;;;;;5071812;28;20990;-76
2022/04/15 09:15:57;;;;;;;43.70;40.30;;;19.00;60.80;;;;;;5072349;28;20533;-76
2022/04/15 09:18:31;;;;;;;42.73;39.57;;;19.00;60.70;;;;;;5071954;28;20963;-76
2022/04/15 09:21:20;;;;;;;42.30;39.47;;;19.20;60.80;;;;;;5071709;28;20472;-76
2022/04/15 09:23:53;;;;;;;43.87;40.63;;;19.50;60.20;;;;;;5072053;28;20494;-76
2022/04/15 09:26:20;;;;;;;41.90;39.10;;;19.60;59.20;;;;;;5072044;28;20982;-76
2022/04/15 09:28:48;;;;;;;44.40;41.07;;;19.30;60.10;;;;;;5072109;28;20542;-76
2022/04/15 09:31:17;;;;;;;44.70;41.50;;;19.30;60.10;;;;;;5071362;28;20555;-76
2022/04/15 09:33:52;;;;;;;46.20;43.00;;;19.30;59.90;;;;;;5071949;28;20470;-76
2022/04/15 09:36:26;;;;;;;43.30;40.13;;;19.30;59.20;;;;;;5072045;28;20458;-76
2022/04/15 09:39:02;;;;;;;47.23;43.70;;;19.00;59.10;;;;;;5072214;28;20485;-76
2022/04/15 09:41:30;;;;;;;43.23;40.10;;;18.80;59.00;;;;;;5074507;28;20452;-76
2022/04/15 09:43:58;;;;;;;43.70;40.60;;;18.60;59.90;;;;;;5076323;28;20467;-76
2022/04/15 09:46:27;;;;;;;42.17;39.17;;;18.70;59.20;;;;;;5076161;28;20468;-75
2022/04/15 09:49:02;;;;;;;43.43;40.43;;;18.70;59.50;;;;;;5075913;28;20450;-75
2022/04/15 09:51:36;;;;;;;41.33;38.53;;;18.80;59.80;;;;;;5075884;28;20536;-75
2022/04/15 09:54:06;;;;;;;43.87;40.70;;;18.80;59.50;;;;;;5075906;28;20513;-75
2022/04/15 09:56:39;;;;;;;44.53;41.00;;;18.70;59.70;;;;;;5076070;28;20533;-75
2022/04/15 09:59:11;;;;;;;45.23;42.03;;;18.70;60.30;;;;;;5075755;28;20511;-75
2022/04/15 10:01:41;;;;;;;41.80;39.00;;;18.90;60.20;;;;;;5075870;28;20442;-75
2022/04/15 10:04:10;;;;;;;39.83;37.10;;;19.10;59.80;;;;;;5075507;28;20466;-75
2022/04/15 10:06:39;;;;;;;41.27;38.37;;;19.20;58.70;;;;;;5075717;28;20492;-75
2022/04/15 10:09:11;;;;;;;41.50;38.70;;;19.30;58.00;;;;;;5075463;28;20454;-75
2022/04/15 10:11:42;;;;;;;39.20;36.23;;;19.70;57.30;;;;;;5075291;28;20470;-75
2022/04/15 10:14:10;;;;;;;41.07;38.17;;;19.80;56.30;;;;;;5075119;28;20477;-75
2022/04/15 10:16:39;;;;;;;43.77;40.43;;;19.80;56.30;;;;;;5075242;28;20549;-75
2022/04/15 10:19:07;;;;;;;44.10;41.10;;;19.70;56.90;;;;;;5074931;28;20457;-75
2022/04/15 10:21:37;;;;;;;42.60;39.27;;;19.50;57.50;;;;;;5075343;28;20504;-75
2022/04/15 10:24:08;;;;;;;40.00;37.17;;;19.40;57.80;;;;;;5075152;28;20817;-75
2022/04/15 10:26:36;;;;;;;38.17;35.30;;;19.80;57.20;;;;;;5075075;28;20461;-75
2022/04/15 10:29:04;;;;;;;36.17;33.60;;;20.00;56.40;;;;;;5074758;28;20464;-75
2022/04/15 10:31:38;;;;;;;38.80;35.57;;;20.20;54.70;;;;;;5074526;28;21111;-75
2022/04/15 10:34:10;;;;;;;35.90;33.30;;;20.20;55.60;;;;;;5075008;28;20971;-75
2022/04/15 10:36:38;;;;;;;38.17;35.57;;;20.30;57.50;;;;;;5075012;28;20463;-75
2022/04/15 10:39:20;;;;;;;38.50;35.83;;;20.40;56.60;;;;;;5074712;28;20456;-75
2022/04/15 10:42:04;;;;;;;39.43;36.50;;;20.10;57.80;;;;;;5075105;28;20954;-75
2022/04/15 10:44:33;;;;;;;37.97;35.27;;;20.10;57.80;;;;;;5074787;28;20475;-75
2022/04/15 10:47:04;;;;;;;40.97;37.80;;;20.20;57.30;;;;;;5074720;28;20961;-75
2022/04/15 10:49:34;;;;;;;36.10;33.70;;;20.20;57.20;;;;;;5074241;28;20454;-75
2022/04/15 10:52:03;;;;;;;37.50;34.97;;;20.00;57.30;;;;;;5073763;28;20561;-75
2022/04/15 10:54:34;;;;;;;35.30;32.90;;;20.40;56.00;;;;;;5074627;28;20502;-75
2022/04/15 10:57:02;;;;;;;34.43;32.07;;;20.50;55.30;;;;;;5074623;28;20465;-76
2022/04/15 11:02:18;;;;;;;35.13;32.63;;;20.40;53.80;;;;;;5074493;28;20508;-75
2022/04/15 11:04:49;;;;;;;35.37;32.93;;;20.40;53.70;;;;;;5074140;28;20470;-75
2022/04/15 11:07:17;;;;;;;35.07;32.77;;;20.10;54.60;;;;;;5074491;28;20459;-75
2022/04/15 11:09:47;;;;;;;35.10;32.50;;;19.90;54.90;;;;;;5074069;28;20449;-75
2022/04/15 11:12:14;;;;;;;35.97;33.47;;;20.00;55.30;;;;;;5074524;28;21005;-75
2022/04/15 11:14:44;;;;;;;35.50;33.20;;;19.80;55.50;;;;;;5073744;28;20471;-75
2022/04/15 11:17:14;;;;;;;36.23;33.73;;;19.90;55.50;;;;;;5074436;28;20542;-75
2022/04/15 11:19:43;;;;;;;34.30;31.73;;;20.20;55.20;;;;;;5073550;28;20451;-75
2022/04/15 11:22:10;;;;;;;34.10;31.87;;;20.50;54.10;;;;;;5074245;28;20518;-75
2022/04/15 11:24:41;;;;;;;36.27;33.43;;;20.70;53.40;;;;;;5074033;28;20475;-75
2022/04/15 11:27:10;;;;;;;36.63;34.03;;;20.60;53.10;;;;;;5074006;28;20454;-75
2022/04/15 11:29:40;;;;;;;36.77;34.27;;;20.60;53.30;;;;;;5073245;28;20541;-75
2022/04/15 11:32:09;;;;;;;35.53;33.13;;;20.80;52.70;;;;;;5073913;28;21017;-75
2022/04/15 11:34:36;;;;;;;36.60;33.60;;;21.10;52.90;;;;;;5073699;28;20482;-75
2022/04/15 11:37:04;;;;;;;33.73;31.47;;;21.20;52.20;;;;;;5073889;28;20464;-75
2022/04/15 11:39:35;;;;;;;35.47;33.07;;;21.40;51.70;;;;;;5073193;28;20979;-75
2022/04/15 11:42:07;;;;;;;36.10;33.60;;;21.30;52.20;;;;;;5073651;28;20466;-75
2022/04/15 11:44:36;;;;;;;38.60;36.10;;;21.10;52.70;;;;;;5073646;28;20480;-75
2022/04/15 11:47:18;;;;;;;38.13;35.43;;;20.70;53.30;;;;;;5073494;28;20451;-75
2022/04/15 11:49:47;;;;;;;38.20;35.70;;;20.40;54.20;;;;;;5072959;28;20900;-75
2022/04/15 11:52:21;;;;;;;36.97;34.37;;;19.90;55.60;;;;;;5073749;28;20470;-75
2022/04/15 11:54:48;;;;;;;38.53;35.70;;;19.50;56.90;;;;;;5073326;28;20450;-75
2022/04/15 11:57:15;;;;;;;37.07;34.43;;;19.70;56.40;;;;;;5073562;28;20538;-75
2022/04/15 11:59:45;;;;;;;35.00;32.80;;;19.90;56.20;;;;;;5072822;28;20530;-75
2022/04/15 12:02:14;;;;;;;33.60;31.30;;;20.00;55.30;;;;;;5073556;28;20447;-75
2022/04/15 12:04:49;;;;;;;32.70;30.50;;;20.10;54.60;;;;;;5071982;28;20446;-75
2022/04/15 12:07:17;;;;;;;34.43;32.10;;;20.60;52.70;;;;;;5073166;28;20468;-75
2022/04/15 12:09:45;;;;;;;33.33;31.10;;;21.10;51.50;;;;;;5072821;28;20481;-75
2022/04/15 12:12:12;;;;;;;31.00;29.10;;;21.40;50.40;;;;;;5073236;28;20836;-75
2022/04/15 12:14:42;;;;;;;31.00;29.00;;;21.10;47.70;;;;;;5072445;28;20489;-75
2022/04/15 12:17:11;;;;;;;35.63;33.33;;;21.10;48.70;;;;;;5072866;28;20965;-75
2022/04/15 12:19:39;;;;;;;34.53;32.23;;;21.30;50.20;;;;;;5072142;28;20454;-75
2022/04/15 12:22:07;;;;;;;35.30;32.80;;;21.50;50.70;;;;;;5073014;28;20556;-75
2022/04/15 12:24:34;;;;;;;35.17;32.43;;;21.70;50.30;;;;;;5072805;28;20550;-75
2022/04/15 12:27:01;;;;;;;36.97;34.37;;;21.60;51.00;;;;;;5072665;28;20529;-75
2022/04/15 12:29:48;;;;;;;39.67;37.17;;;21.40;50.60;;;;;;5072148;28;20454;-75
2022/04/15 12:32:24;;;;;;;38.43;35.90;;;21.00;51.30;;;;;;5072718;28;20482;-75
2022/04/15 12:35:07;;;;;;;38.47;35.23;;;20.70;52.00;;;;;;5072655;28;20507;-75
2022/04/15 12:37:35;;;;;;;36.20;33.80;;;20.60;52.30;;;;;;5072725;28;20450;-75